Time;durP1;ratioP1;P1;durP2;ratioP2;P2;SDS_P1;SDS_P2;PMS_P1;PMS_P2;Temp;Humidity;BMP_temperature;BMP_pressure;BME280_temperature;BME280_humidity;BME280_pressure;Samples;Min_cycle;Max_cycle;Signal;HPM_P1;HPM_P2
2023/03/06 00:01:25;;;;;;;38.83;23.35;;;10.30;82.70;;;;;;4590182;19;20433;-28
2023/03/06 00:02:57;;;;;;;41.95;24.85;;;10.20;82.50;;;;;;4589132;19;20018;-27
2023/03/06 00:04:28;;;;;;;33.20;19.00;;;10.30;82.50;;;;;;4589092;19;20066;-27
2023/03/06 00:06:01;;;;;;;39.70;23.47;;;10.20;82.40;;;;;;4589770;19;20372;-28
2023/03/06 00:07:32;;;;;;;44.30;24.73;;;10.20;82.60;;;;;;4590132;19;20441;-28
2023/03/06 00:09:03;;;;;;;36.53;21.67;;;10.20;82.60;;;;;;4590121;19;20007;-25
2023/03/06 00:10:36;;;;;;;38.37;22.57;;;10.20;82.80;;;;;;4590395;19;20011;-26
2023/03/06 00:12:09;;;;;;;39.37;24.97;;;10.20;82.80;;;;;;4589865;19;20809;-25
2023/03/06 00:13:40;;;;;;;46.55;27.13;;;10.20;82.80;;;;;;4590005;19;20444;-27
2023/03/06 00:15:12;;;;;;;63.67;42.58;;;10.20;82.90;;;;;;4589587;19;20082;-27
2023/03/06 00:16:43;;;;;;;164.07;88.40;;;10.20;82.90;;;;;;4589818;19;20407;-28
2023/03/06 00:18:15;;;;;;;205.23;105.03;;;10.20;83.00;;;;;;4589755;19;20410;-23
2023/03/06 00:19:47;;;;;;;172.13;81.50;;;10.20;82.80;;;;;;4589835;19;20433;-26
2023/03/06 00:21:19;;;;;;;104.97;44.57;;;10.20;83.00;;;;;;4589324;19;20021;-26
2023/03/06 00:22:52;;;;;;;85.60;38.73;;;10.20;83.20;;;;;;4589539;19;20467;-24
2023/03/06 00:24:23;;;;;;;70.03;33.70;;;10.20;83.20;;;;;;4590083;19;20425;-29
2023/03/06 00:25:55;;;;;;;50.80;25.65;;;10.20;83.00;;;;;;4589652;19;20018;-25
2023/03/06 00:27:28;;;;;;;31.57;17.20;;;10.20;83.20;;;;;;4590575;19;20070;-27
2023/03/06 00:28:59;;;;;;;;;;;10.20;83.00;;;;;;4589240;19;20555;-27
2023/03/06 00:30:30;;;;;;;24.87;14.33;;;10.20;83.30;;;;;;4589101;19;19915;-28
2023/03/06 00:32:03;;;;;;;29.87;17.23;;;10.20;83.00;;;;;;4589447;19;20035;-24
2023/03/06 00:33:34;;;;;;;37.83;22.85;;;10.20;82.80;;;;;;4588062;19;20524;-25
2023/03/06 00:35:07;;;;;;;36.40;21.17;;;10.20;82.80;;;;;;4589192;19;20018;-26
2023/03/06 00:36:40;;;;;;;48.73;24.97;;;10.20;82.80;;;;;;4589409;19;20456;-27
2023/03/06 00:38:12;;;;;;;54.13;28.07;;;10.20;83.00;;;;;;4589693;19;20464;-24
2023/03/06 00:39:45;;;;;;;53.10;31.03;;;10.20;82.70;;;;;;4589534;19;20437;-26
2023/03/06 00:41:18;;;;;;;42.63;24.10;;;10.20;82.70;;;;;;4589770;19;20471;-25
2023/03/06 00:42:51;;;;;;;44.57;25.53;;;10.20;82.90;;;;;;4589260;19;20441;-27
2023/03/06 00:44:22;;;;;;;36.63;20.52;;;10.20;82.80;;;;;;4589476;19;20977;-27
2023/03/06 00:45:53;;;;;;;35.50;22.30;;;10.20;82.70;;;;;;4589719;19;20011;-24
2023/03/06 00:47:24;;;;;;;30.17;17.83;;;10.20;82.70;;;;;;4589481;19;20021;-23
2023/03/06 00:48:57;;;;;;;30.67;18.33;;;10.20;83.50;;;;;;4589248;19;20006;-24
2023/03/06 00:50:29;;;;;;;29.30;17.42;;;10.10;82.70;;;;;;4589418;19;20437;-30
2023/03/06 00:52:02;;;;;;;28.60;16.77;;;10.20;83.10;;;;;;4589392;19;20029;-27
2023/03/06 00:53:33;;;;;;;25.67;15.82;;;10.20;82.60;;;;;;4589521;19;20429;-28
2023/03/06 00:55:05;;;;;;;24.17;14.90;;;10.20;82.60;;;;;;4588948;19;20018;-29
2023/03/06 00:56:36;;;;;;;25.80;16.07;;;10.10;82.80;;;;;;4589200;19;20031;-27
2023/03/06 00:58:09;;;;;;;29.50;16.30;;;10.10;83.10;;;;;;4587393;19;20479;-24
2023/03/06 00:59:42;;;;;;;30.17;18.33;;;10.10;83.60;;;;;;4588710;19;20779;-28
2023/03/06 01:01:14;;;;;;;31.80;17.87;;;10.10;84.60;;;;;;4589304;19;20553;-29
2023/03/06 01:02:46;;;;;;;24.53;15.23;;;10.10;84.90;;;;;;4588870;19;20463;-26
2023/03/06 01:04:19;;;;;;;23.47;16.43;;;10.20;84.90;;;;;;4589301;19;20469;-31
2023/03/06 01:05:51;;;;;;;25.83;16.80;;;10.20;84.80;;;;;;4588775;19;20483;-27
2023/03/06 01:07:22;;;;;;;25.23;16.88;;;10.30;84.40;;;;;;4589076;19;20030;-28
2023/03/06 01:08:54;;;;;;;25.53;15.40;;;10.30;84.00;;;;;;4588849;19;20527;-30
2023/03/06 01:10:28;;;;;;;24.67;14.63;;;10.30;83.70;;;;;;4588906;19;20460;-27
2023/03/06 01:12:00;;;;;;;23.48;14.05;;;10.30;83.40;;;;;;4588829;19;20478;-24
2023/03/06 01:13:32;;;;;;;21.87;13.23;;;10.30;83.30;;;;;;4588940;19;20014;-25
2023/03/06 01:15:05;;;;;;;23.10;13.13;;;10.30;83.20;;;;;;4588863;19;21360;-25
2023/03/06 01:16:36;;;;;;;;;;;10.30;83.10;;;;;;4591127;19;20437;-25
2023/03/06 01:18:08;;;;;;;24.43;13.57;;;10.30;83.40;;;;;;4588818;19;19946;-29
2023/03/06 01:19:39;;;;;;;22.38;13.40;;;10.30;83.00;;;;;;4587624;19;21072;-27
2023/03/06 01:21:12;;;;;;;22.10;12.17;;;10.20;82.90;;;;;;4588706;19;20560;-27
2023/03/06 01:22:44;;;;;;;18.93;13.03;;;10.30;82.60;;;;;;4588636;19;20429;-27
2023/03/06 01:24:15;;;;;;;22.30;13.30;;;10.30;82.80;;;;;;4588953;19;20479;-26
2023/03/06 01:25:49;;;;;;;26.20;13.50;;;10.20;82.70;;;;;;4588603;19;20338;-25
2023/03/06 01:27:20;;;;;;;21.70;12.40;;;10.20;82.60;;;;;;4588010;19;20440;-29
2023/03/06 01:28:52;;;;;;;19.17;11.38;;;10.20;82.30;;;;;;4588335;19;20014;-26
2023/03/06 01:30:25;;;;;;;19.90;11.77;;;10.20;82.40;;;;;;4587454;19;20363;-28
2023/03/06 01:31:58;;;;;;;22.23;13.67;;;10.20;82.40;;;;;;4588460;19;20824;-24
2023/03/06 01:33:31;;;;;;;93.60;50.30;;;10.20;82.10;;;;;;4589966;19;20475;-23
2023/03/06 01:35:02;;;;;;;169.20;95.00;;;10.20;82.10;;;;;;4592875;19;20421;-28
2023/03/06 01:36:36;;;;;;;107.00;58.20;;;10.20;82.20;;;;;;4591974;19;20028;-27
2023/03/06 01:38:08;;;;;;;126.20;67.20;;;10.20;82.50;;;;;;4592405;19;20471;-28
2023/03/06 01:39:40;;;;;;;95.47;54.67;;;10.20;81.90;;;;;;4592992;19;20806;-27
2023/03/06 01:41:14;;;;;;;99.90;55.33;;;10.20;81.80;;;;;;4593169;19;21039;-27
2023/03/06 01:42:47;;;;;;;71.70;44.73;;;10.10;81.90;;;;;;4592865;19;21111;-29
2023/03/06 01:44:20;;;;;;;64.23;38.60;;;10.20;81.70;;;;;;4591779;19;20429;-28
2023/03/06 01:45:51;;;;;;;60.55;35.95;;;10.10;82.10;;;;;;4592727;19;20917;-24
2023/03/06 01:47:23;;;;;;;39.50;23.17;;;10.10;81.30;;;;;;4592870;19;20074;-24
2023/03/06 01:49:22;;;;;;;44.37;26.23;;;10.10;81.70;;;;;;4592750;19;21071;-27
2023/03/06 01:50:54;;;;;;;38.43;22.83;;;10.10;81.60;;;;;;4591895;19;20429;-27
2023/03/06 01:52:29;;;;;;;38.45;20.38;;;10.10;81.30;;;;;;4592738;19;20421;-26
2023/03/06 01:54:02;;;;;;;47.93;22.60;;;10.10;81.40;;;;;;4591639;19;20468;-27
2023/03/06 01:55:35;;;;;;;49.80;23.13;;;10.10;81.40;;;;;;4590935;19;20440;-29
2023/03/06 01:57:14;;;;;;;60.10;28.03;;;10.10;81.30;;;;;;4592265;19;21020;-27
2023/03/06 01:58:48;;;;;;;59.13;29.20;;;10.10;81.70;;;;;;4591354;19;20468;-25
2023/03/06 02:00:26;;;;;;;51.23;25.27;;;10.10;81.50;;;;;;4591548;19;20437;-23
2023/03/06 02:02:00;;;;;;;51.77;26.43;;;10.10;81.40;;;;;;4592387;19;20444;-25
2023/03/06 02:03:31;;;;;;;53.93;26.97;;;10.10;81.20;;;;;;4591499;19;20425;-27
2023/03/06 02:05:03;;;;;;;51.58;27.55;;;10.10;81.30;;;;;;4592561;19;20437;-28
2023/03/06 02:06:37;;;;;;;57.17;30.27;;;10.10;81.10;;;;;;4591692;19;20488;-24
2023/03/06 02:08:15;;;;;;;43.60;23.73;;;10.10;80.90;;;;;;4591094;19;20444;-25
2023/03/06 02:09:47;;;;;;;52.07;28.43;;;10.10;81.20;;;;;;4591666;19;20433;-30
2023/03/06 02:11:23;;;;;;;41.20;24.07;;;10.10;80.90;;;;;;4592354;19;20432;-30
2023/03/06 02:12:54;;;;;;;42.97;23.50;;;10.00;80.70;;;;;;4592621;19;20421;-25
2023/03/06 02:14:28;;;;;;;41.63;22.23;;;10.10;80.80;;;;;;4592417;19;20429;-28
2023/03/06 02:16:00;;;;;;;37.80;21.83;;;10.00;80.70;;;;;;4590041;19;20445;-25
2023/03/06 02:17:33;;;;;;;34.60;20.40;;;10.10;80.60;;;;;;4591546;19;20425;-27
2023/03/06 02:19:13;;;;;;;29.10;16.13;;;10.10;80.70;;;;;;4591204;19;20868;-26
2023/03/06 02:20:54;;;;;;;31.87;17.07;;;10.10;80.70;;;;;;4591189;19;20409;-24
2023/03/06 02:22:32;;;;;;;25.98;14.63;;;10.10;81.00;;;;;;4592158;19;20435;-25
2023/03/06 02:24:14;;;;;;;25.67;14.87;;;10.00;81.10;;;;;;4591038;19;20368;-24
2023/03/06 02:25:47;;;;;;;25.98;16.52;;;10.10;81.30;;;;;;4591695;19;20437;-25
2023/03/06 02:27:18;;;;;;;28.00;17.23;;;10.10;80.80;;;;;;4592149;19;20014;-27
2023/03/06 02:28:51;;;;;;;25.40;14.83;;;10.10;80.50;;;;;;4592091;19;20520;-24
2023/03/06 02:30:22;;;;;;;24.52;13.40;;;10.10;80.30;;;;;;4591927;19;20417;-24
2023/03/06 02:31:53;;;;;;;22.15;13.45;;;10.00;80.60;;;;;;4591271;19;20040;-27
2023/03/06 02:33:27;;;;;;;21.43;13.93;;;10.00;80.80;;;;;;4590861;19;20019;-26
2023/03/06 02:34:59;;;;;;;23.07;13.40;;;10.00;81.40;;;;;;4592062;19;21121;-27
2023/03/06 02:36:34;;;;;;;21.10;12.77;;;9.90;82.30;;;;;;4591709;19;21096;-27
2023/03/06 02:38:11;;;;;;;21.97;14.13;;;10.00;82.30;;;;;;4591012;19;20558;-23
2023/03/06 02:39:45;;;;;;;19.47;12.20;;;10.00;82.60;;;;;;4590669;19;20524;-26
2023/03/06 02:41:17;;;;;;;23.33;13.67;;;10.10;82.00;;;;;;4591618;19;20409;-27
2023/03/06 02:42:55;;;;;;;24.95;15.27;;;10.10;81.90;;;;;;4591744;19;20441;-24
2023/03/06 02:44:26;;;;;;;24.10;14.30;;;10.10;81.60;;;;;;4591163;19;20352;-24
2023/03/06 02:45:59;;;;;;;23.77;15.83;;;10.10;81.30;;;;;;4591884;19;20451;-24
2023/03/06 02:47:31;;;;;;;31.03;17.70;;;10.10;80.80;;;;;;4591767;19;21020;-26
2023/03/06 02:49:04;;;;;;;32.03;18.37;;;10.10;81.00;;;;;;4591409;19;20796;-25
2023/03/06 02:50:35;;;;;;;32.35;18.65;;;10.10;81.10;;;;;;4592031;19;20452;-28
2023/03/06 02:52:08;;;;;;;37.37;19.53;;;10.10;80.90;;;;;;4591434;19;20018;-25
2023/03/06 02:53:39;;;;;;;30.53;16.57;;;10.10;80.90;;;;;;4591536;19;20430;-30
2023/03/06 02:55:12;;;;;;;27.53;15.60;;;10.10;80.90;;;;;;4591120;19;20436;-28
2023/03/06 02:56:45;;;;;;;23.70;13.67;;;10.10;80.80;;;;;;4591586;19;20472;-23
2023/03/06 02:58:20;;;;;;;21.97;13.47;;;10.10;80.70;;;;;;4590564;19;20460;-25
2023/03/06 02:59:52;;;;;;;22.23;14.53;;;10.10;81.00;;;;;;4591275;19;20455;-29
2023/03/06 03:01:24;;;;;;;23.40;13.63;;;10.10;81.00;;;;;;4591419;19;20437;-26
2023/03/06 03:02:55;;;;;;;22.73;15.35;;;10.10;80.80;;;;;;4591413;19;20487;-26
2023/03/06 03:04:29;;;;;;;22.03;12.80;;;10.10;81.00;;;;;;4591374;19;20015;-24
2023/03/06 03:06:04;;;;;;;21.57;12.63;;;10.10;80.90;;;;;;4591180;19;20491;-27
2023/03/06 03:07:35;;;;;;;21.00;12.87;;;10.10;80.80;;;;;;4591443;19;20562;-28
2023/03/06 03:09:08;;;;;;;23.57;14.17;;;10.00;81.10;;;;;;4591062;19;20487;-28
2023/03/06 03:10:39;;;;;;;24.90;14.30;;;10.00;81.20;;;;;;4590087;19;20433;-27
2023/03/06 03:12:12;;;;;;;26.00;15.47;;;9.90;80.90;;;;;;4590739;19;20360;-25
2023/03/06 03:13:45;;;;;;;27.43;14.70;;;10.00;81.00;;;;;;4590809;19;21064;-27
2023/03/06 03:15:16;;;;;;;23.80;14.10;;;10.00;80.80;;;;;;4589655;19;20445;-24
2023/03/06 03:16:48;;;;;;;23.92;13.23;;;10.00;81.00;;;;;;4591039;19;20010;-24
2023/03/06 03:18:19;;;;;;;25.80;14.75;;;10.00;81.10;;;;;;4591337;19;20006;-27
2023/03/06 03:19:51;;;;;;;24.63;15.88;;;10.00;81.10;;;;;;4591367;19;20078;-31
2023/03/06 03:21:22;;;;;;;29.25;16.20;;;10.00;80.90;;;;;;4591013;19;20026;-28
2023/03/06 03:22:54;;;;;;;27.38;15.55;;;10.00;80.80;;;;;;4591018;19;20011;-25
2023/03/06 03:24:26;;;;;;;22.43;13.97;;;10.00;80.80;;;;;;4590867;19;20472;-25
2023/03/06 03:26:08;;;;;;;22.42;14.60;;;10.00;81.10;;;;;;4591321;19;20859;-28
2023/03/06 03:27:40;;;;;;;25.27;15.53;;;10.00;81.10;;;;;;4590883;19;20010;-24
2023/03/06 03:29:11;;;;;;;25.13;14.98;;;10.00;81.20;;;;;;4591017;19;20432;-26
2023/03/06 03:30:43;;;;;;;22.58;14.85;;;10.00;81.00;;;;;;4591038;19;20017;-27
2023/03/06 03:32:16;;;;;;;22.07;14.93;;;10.00;80.90;;;;;;4591089;19;20010;-30
2023/03/06 03:33:47;;;;;;;22.38;14.32;;;10.00;81.10;;;;;;4589794;19;20804;-26
2023/03/06 03:35:18;;;;;;;24.45;15.27;;;10.00;81.10;;;;;;4590404;19;20020;-24
2023/03/06 03:36:51;;;;;;;22.73;15.03;;;10.00;81.00;;;;;;4590883;19;20010;-25
2023/03/06 03:38:24;;;;;;;21.47;13.77;;;10.00;80.90;;;;;;4590996;19;20432;-25
2023/03/06 03:39:57;;;;;;;22.13;13.73;;;10.00;80.60;;;;;;4590239;19;20437;-27
2023/03/06 03:41:30;;;;;;;21.03;14.47;;;10.00;80.60;;;;;;4590434;19;20488;-27
2023/03/06 03:43:01;;;;;;;21.30;13.88;;;10.00;80.30;;;;;;4589879;19;20459;-26
2023/03/06 03:44:34;;;;;;;22.97;14.20;;;10.00;80.30;;;;;;4590208;19;20464;-25
2023/03/06 03:46:05;;;;;;;21.25;14.07;;;10.00;80.30;;;;;;4589463;19;20429;-28
2023/03/06 03:47:37;;;;;;;21.85;13.32;;;9.90;80.00;;;;;;4590129;19;20027;-27
2023/03/06 03:49:09;;;;;;;24.42;14.85;;;9.90;80.00;;;;;;4590491;19;20024;-25
2023/03/06 03:50:40;;;;;;;21.63;13.88;;;9.90;79.90;;;;;;4590768;19;20051;-30
2023/03/06 03:52:11;;;;;;;22.02;13.32;;;9.90;79.90;;;;;;4590458;19;20010;-24
2023/03/06 03:53:43;;;;;;;20.85;13.90;;;9.90;79.80;;;;;;4590468;19;20026;-31
2023/03/06 03:55:14;;;;;;;27.02;17.13;;;9.90;79.60;;;;;;4589025;19;20478;-26
2023/03/06 03:56:46;;;;;;;24.97;16.60;;;9.90;79.40;;;;;;4589218;19;20066;-29
2023/03/06 03:58:17;;;;;;;25.85;16.90;;;9.90;79.40;;;;;;4589466;19;20476;-27
2023/03/06 03:59:50;;;;;;;22.63;16.00;;;9.90;79.40;;;;;;4590234;19;20090;-30
2023/03/06 04:01:22;;;;;;;22.53;15.47;;;9.90;79.30;;;;;;4590582;19;20425;-27
2023/03/06 04:02:55;;;;;;;22.23;14.53;;;9.80;79.30;;;;;;4590041;19;20838;-27
2023/03/06 04:04:26;;;;;;;23.98;15.75;;;9.80;79.30;;;;;;4589161;19;20443;-27
2023/03/06 04:05:58;;;;;;;23.17;15.23;;;9.80;78.90;;;;;;4589736;19;20025;-24
2023/03/06 04:07:30;;;;;;;22.47;13.33;;;9.80;79.00;;;;;;4590536;19;20344;-26
2023/03/06 04:09:04;;;;;;;23.63;15.23;;;9.80;79.20;;;;;;4590045;19;21016;-31
2023/03/06 04:10:38;;;;;;;27.17;16.07;;;9.80;79.30;;;;;;4589971;19;20533;-25
2023/03/06 04:12:09;;;;;;;22.07;14.13;;;9.80;79.10;;;;;;4589858;19;20478;-27
2023/03/06 04:13:42;;;;;;;24.07;15.17;;;9.80;79.10;;;;;;4590324;19;20424;-26
2023/03/06 04:15:13;;;;;;;23.05;14.90;;;9.80;78.90;;;;;;4589787;19;21134;-26
2023/03/06 04:16:46;;;;;;;22.13;13.70;;;9.80;78.90;;;;;;4590085;19;20025;-31
2023/03/06 04:18:18;;;;;;;23.20;15.40;;;9.80;78.80;;;;;;4590102;19;20421;-27
2023/03/06 04:19:51;;;;;;;20.10;14.63;;;9.80;78.70;;;;;;4589082;19;20033;-24
2023/03/06 04:21:23;;;;;;;21.53;14.10;;;9.80;78.60;;;;;;4589549;19;20421;-27
2023/03/06 04:22:56;;;;;;;21.27;13.57;;;9.80;78.50;;;;;;4589709;19;21019;-26
2023/03/06 04:24:27;;;;;;;20.88;13.20;;;9.70;78.70;;;;;;4590169;19;20516;-27
2023/03/06 04:26:00;;;;;;;22.87;14.47;;;9.70;78.70;;;;;;4589886;19;20090;-26
2023/03/06 04:27:31;;;;;;;24.50;15.13;;;9.70;78.50;;;;;;4589802;19;20536;-28
2023/03/06 04:29:03;;;;;;;;;;;9.70;78.60;;;;;;4590381;19;20027;-32
2023/03/06 04:30:35;;;;;;;19.40;13.68;;;9.70;78.70;;;;;;4588623;19;20269;-24
2023/03/06 04:32:07;;;;;;;22.13;13.43;;;9.70;78.30;;;;;;4589483;19;20015;-26
2023/03/06 04:33:39;;;;;;;24.47;14.13;;;9.70;78.40;;;;;;4589241;19;20468;-25
2023/03/06 04:35:11;;;;;;;21.77;13.60;;;9.70;78.70;;;;;;4589283;19;20461;-28
2023/03/06 04:36:45;;;;;;;18.92;12.93;;;9.70;78.80;;;;;;4589584;19;20433;-28
2023/03/06 04:38:16;;;;;;;22.90;13.73;;;9.70;79.10;;;;;;4588965;19;20042;-28
2023/03/06 04:39:48;;;;;;;19.80;13.38;;;9.60;78.70;;;;;;4591217;19;20480;-28
2023/03/06 04:41:19;;;;;;;22.75;13.35;;;9.70;79.00;;;;;;4590679;19;20022;-30
2023/03/06 04:42:51;;;;;;;22.95;15.13;;;9.70;79.30;;;;;;4589654;19;20007;-26
2023/03/06 04:44:22;;;;;;;;;;;9.60;78.90;;;;;;4590153;19;20018;-22
2023/03/06 04:45:54;;;;;;;21.07;14.00;;;9.60;79.40;;;;;;4588203;19;19915;-29
2023/03/06 04:47:27;;;;;;;21.27;13.37;;;9.60;79.10;;;;;;4589285;19;20836;-28
2023/03/06 04:48:58;;;;;;;25.17;15.05;;;9.60;78.70;;;;;;4589257;19;20481;-24
2023/03/06 04:50:31;;;;;;;24.50;15.38;;;9.60;78.60;;;;;;4589324;19;20046;-30
2023/03/06 04:52:05;;;;;;;21.27;14.17;;;9.60;78.50;;;;;;4585962;19;20026;-27
2023/03/06 04:53:37;;;;;;;;;;;9.60;78.50;;;;;;4589892;19;20509;-27
2023/03/06 04:55:09;;;;;;;22.27;13.97;;;9.70;78.40;;;;;;4589714;19;19918;-26
2023/03/06 04:56:39;;;;;;;;;;;9.80;78.40;;;;;;4589563;19;20096;-27
2023/03/06 04:58:11;;;;;;;24.08;14.55;;;10.10;78.50;;;;;;4589033;19;19919;-25
2023/03/06 04:59:42;;;;;;;22.42;13.75;;;10.10;77.70;;;;;;4587970;19;20011;-30
2023/03/06 05:01:14;;;;;;;22.13;14.60;;;10.10;77.40;;;;;;4589829;19;20011;-25
2023/03/06 05:02:45;;;;;;;20.17;14.52;;;10.00;77.20;;;;;;4589557;19;20102;-24
2023/03/06 05:04:17;;;;;;;22.70;14.60;;;10.00;77.50;;;;;;4589133;19;20018;-28
2023/03/06 05:05:48;;;;;;;21.05;13.80;;;9.90;77.20;;;;;;4588921;19;20830;-26
2023/03/06 05:07:20;;;;;;;24.15;15.07;;;9.90;77.20;;;;;;4589860;19;20480;-27
2023/03/06 05:08:51;;;;;;;24.70;15.63;;;9.90;77.30;;;;;;4594881;19;20015;-27
2023/03/06 05:10:24;;;;;;;26.33;15.68;;;9.90;77.10;;;;;;4594539;19;20038;-26
2023/03/06 05:11:57;;;;;;;22.87;15.37;;;9.90;77.10;;;;;;4591301;19;20019;-28
2023/03/06 05:13:29;;;;;;;23.63;15.60;;;9.80;77.00;;;;;;4592438;19;20456;-29
2023/03/06 05:15:00;;;;;;;23.13;16.02;;;9.80;78.00;;;;;;4594274;19;20495;-23
2023/03/06 05:16:32;;;;;;;23.20;14.10;;;9.80;77.90;;;;;;4591664;19;20029;-27
2023/03/06 05:18:03;;;;;;;23.48;15.05;;;10.00;78.20;;;;;;4594338;19;20807;-25
2023/03/06 05:19:34;;;;;;;22.67;14.48;;;10.10;77.80;;;;;;4594004;19;20014;-26
2023/03/06 05:21:06;;;;;;;22.15;14.23;;;10.20;77.60;;;;;;4590071;19;20018;-23
2023/03/06 05:22:38;;;;;;;21.95;15.00;;;10.20;77.30;;;;;;4592930;19;20010;-28
2023/03/06 05:24:10;;;;;;;23.80;15.73;;;10.10;77.20;;;;;;4593945;19;20026;-23
2023/03/06 05:25:41;;;;;;;21.25;15.18;;;10.10;77.60;;;;;;4594204;19;20471;-27
2023/03/06 05:27:13;;;;;;;26.43;15.77;;;10.00;77.50;;;;;;4593816;19;20018;-24
2023/03/06 05:28:45;;;;;;;;;;;9.90;77.20;;;;;;4593560;19;20738;-29
2023/03/06 05:30:17;;;;;;;24.77;16.50;;;9.90;77.60;;;;;;4594329;19;20344;-25
2023/03/06 05:31:50;;;;;;;24.23;16.03;;;9.90;77.50;;;;;;4593636;19;20108;-27
2023/03/06 05:33:21;;;;;;;24.50;17.35;;;9.90;77.50;;;;;;4592914;19;20484;-25
2023/03/06 05:34:53;;;;;;;27.05;18.05;;;9.80;77.70;;;;;;4592483;19;20019;-23
2023/03/06 05:36:24;;;;;;;27.20;18.63;;;9.80;78.00;;;;;;4592172;19;20017;-29
2023/03/06 05:37:55;;;;;;;30.60;20.50;;;9.80;77.90;;;;;;4593395;19;20018;-29
2023/03/06 05:39:27;;;;;;;;;;;9.80;78.00;;;;;;4593345;19;20041;-28
2023/03/06 05:40:58;;;;;;;31.40;23.00;;;9.80;78.40;;;;;;4593537;19;19919;-26
2023/03/06 05:42:30;;;;;;;38.97;23.15;;;9.80;78.20;;;;;;4592800;19;20550;-22
2023/03/06 05:44:01;;;;;;;36.72;22.08;;;9.80;78.20;;;;;;4593488;19;20523;-25
2023/03/06 05:45:34;;;;;;;39.67;23.70;;;9.80;78.20;;;;;;4592597;19;20025;-26
2023/03/06 05:47:05;;;;;;;36.30;24.70;;;9.80;78.40;;;;;;4592840;19;20449;-23
2023/03/06 05:48:37;;;;;;;62.42;39.95;;;9.80;78.20;;;;;;4593066;19;20022;-23
2023/03/06 05:50:09;;;;;;;71.30;46.70;;;9.80;78.10;;;;;;4593394;19;20006;-23
2023/03/06 05:51:40;;;;;;;;;;;9.70;78.10;;;;;;4594259;19;20444;-25
2023/03/06 05:53:12;;;;;;;60.17;39.08;;;9.80;79.10;;;;;;4593015;19;19930;-25
2023/03/06 05:54:43;;;;;;;50.08;34.53;;;9.80;78.40;;;;;;4592220;19;20027;-24
2023/03/06 05:56:15;;;;;;;40.50;27.80;;;9.80;78.60;;;;;;4591000;19;20006;-24
2023/03/06 05:57:46;;;;;;;;;;;9.80;78.70;;;;;;4592981;19;20018;-23
2023/03/06 05:59:18;;;;;;;41.60;27.17;;;9.80;78.80;;;;;;4592948;19;19989;-25
2023/03/06 06:00:49;;;;;;;50.55;32.58;;;9.80;78.90;;;;;;4593016;19;20449;-27
2023/03/06 06:02:22;;;;;;;57.40;33.10;;;9.80;79.10;;;;;;4594255;19;20045;-27
2023/03/06 06:03:53;;;;;;;52.33;32.70;;;9.80;78.90;;;;;;4592969;19;20465;-24
2023/03/06 06:05:24;;;;;;;51.50;33.75;;;9.90;79.00;;;;;;4591966;19;20006;-26
2023/03/06 06:06:57;;;;;;;54.97;35.63;;;9.90;79.10;;;;;;4593414;19;20487;-26
2023/03/06 06:08:29;;;;;;;51.23;34.70;;;9.90;79.00;;;;;;4591380;19;20453;-24
2023/03/06 06:10:01;;;;;;;101.77;67.00;;;9.90;79.00;;;;;;4592216;19;20475;-26
2023/03/06 06:11:33;;;;;;;108.22;72.25;;;10.00;79.30;;;;;;4592100;19;20505;-25
2023/03/06 06:13:04;;;;;;;87.95;58.80;;;10.00;79.40;;;;;;4593698;19;20013;-24
2023/03/06 06:14:35;;;;;;;75.53;50.28;;;10.00;79.50;;;;;;4593119;19;20021;-26
2023/03/06 06:16:11;;;;;;;72.60;50.85;;;10.00;79.70;;;;;;4591646;19;20085;-25
2023/03/06 06:17:42;;;;;;;65.10;46.07;;;10.00;80.00;;;;;;4593150;19;20014;-27
2023/03/06 06:19:19;;;;;;;59.78;44.15;;;10.00;80.00;;;;;;4590565;19;20482;-27
2023/03/06 06:20:52;;;;;;;58.83;41.27;;;10.00;79.90;;;;;;4593283;19;20014;-25
2023/03/06 06:22:23;;;;;;;55.25;42.28;;;10.00;80.00;;;;;;4590759;19;20469;-25
2023/03/06 06:23:54;;;;;;;58.35;47.10;;;10.00;80.40;;;;;;4590904;19;20070;-26
2023/03/06 06:25:26;;;;;;;61.70;46.95;;;10.00;80.50;;;;;;4593019;19;20020;-29
2023/03/06 06:26:57;;;;;;;52.13;39.88;;;10.10;80.80;;;;;;4592047;19;20018;-26
2023/03/06 06:28:29;;;;;;;51.30;36.90;;;10.00;80.80;;;;;;4591910;19;20014;-25
2023/03/06 06:30:01;;;;;;;51.43;38.83;;;10.00;80.80;;;;;;4591840;19;20885;-24
2023/03/06 06:31:35;;;;;;;52.77;38.90;;;10.00;81.10;;;;;;4593334;19;20445;-26
2023/03/06 06:33:06;;;;;;;54.40;38.10;;;10.10;81.20;;;;;;4591978;19;20477;-25
2023/03/06 06:34:38;;;;;;;48.03;35.63;;;10.10;81.30;;;;;;4592261;19;20551;-25
2023/03/06 06:36:17;;;;;;;53.95;36.05;;;10.30;81.90;;;;;;4591709;19;20535;-25
2023/03/06 06:37:50;;;;;;;50.37;36.30;;;10.60;81.60;;;;;;4590268;19;20752;-26
2023/03/06 06:39:22;;;;;;;59.07;39.73;;;10.50;81.30;;;;;;4591882;19;20441;-27
2023/03/06 06:40:54;;;;;;;;;;;10.50;81.50;;;;;;4593058;19;20465;-24
2023/03/06 06:42:27;;;;;;;57.07;36.10;;;10.40;81.60;;;;;;4591952;19;20317;-25
2023/03/06 06:43:58;;;;;;;51.38;35.42;;;10.30;81.70;;;;;;4591792;19;20445;-28
2023/03/06 06:45:31;;;;;;;58.80;39.20;;;10.30;82.00;;;;;;4591543;19;20025;-24
2023/03/06 06:47:04;;;;;;;;;;;10.20;81.80;;;;;;4592889;19;20526;-24
2023/03/06 06:48:36;;;;;;;60.77;41.30;;;10.20;82.30;;;;;;4590778;19;19952;-25
2023/03/06 06:50:12;;;;;;;59.80;41.13;;;10.20;82.20;;;;;;4591755;19;20441;-26
2023/03/06 06:51:44;;;;;;;62.07;42.00;;;10.20;82.50;;;;;;4591476;19;20457;-24
2023/03/06 06:53:17;;;;;;;64.57;40.30;;;10.10;83.00;;;;;;4591488;19;20421;-24
2023/03/06 06:54:49;;;;;;;61.40;41.20;;;10.10;82.70;;;;;;4591446;19;20552;-25
2023/03/06 06:56:20;;;;;;;59.65;39.22;;;10.10;82.70;;;;;;4590368;19;20024;-27
2023/03/06 06:57:51;;;;;;;56.75;37.65;;;10.10;82.90;;;;;;4591159;19;20556;-25
2023/03/06 06:59:22;;;;;;;57.15;38.00;;;10.10;82.90;;;;;;4590579;19;20043;-25
2023/03/06 07:00:56;;;;;;;61.10;39.27;;;10.20;83.10;;;;;;4591197;19;20035;-24
2023/03/06 07:02:27;;;;;;;62.03;39.17;;;10.10;83.30;;;;;;4591372;19;20472;-24
2023/03/06 07:03:59;;;;;;;;;;;10.10;83.40;;;;;;4592331;19;20070;-25
2023/03/06 07:05:30;;;;;;;64.03;39.27;;;10.20;83.90;;;;;;4591446;19;19921;-24
2023/03/06 07:07:02;;;;;;;59.83;38.37;;;10.20;83.90;;;;;;4591108;19;20006;-25
2023/03/06 07:08:35;;;;;;;59.53;38.60;;;10.20;83.90;;;;;;4591523;19;20425;-24
2023/03/06 07:10:11;;;;;;;58.42;39.67;;;10.20;84.00;;;;;;4591143;19;20566;-25
2023/03/06 07:11:44;;;;;;;59.33;38.77;;;10.20;84.40;;;;;;4590229;19;20018;-27
2023/03/06 07:13:17;;;;;;;61.60;39.13;;;10.20;84.60;;;;;;4590865;19;20473;-25
2023/03/06 07:14:49;;;;;;;54.17;36.00;;;10.20;84.50;;;;;;4590352;19;20452;-26
2023/03/06 07:16:22;;;;;;;53.40;34.67;;;10.20;84.70;;;;;;4589645;19;20469;-24
2023/03/06 07:17:53;;;;;;;52.80;34.10;;;10.20;84.70;;;;;;4590090;19;20473;-25
2023/03/06 07:19:25;;;;;;;52.40;33.75;;;10.20;85.10;;;;;;4591047;19;20013;-24
2023/03/06 07:20:57;;;;;;;54.10;34.50;;;10.20;85.60;;;;;;4591152;19;20070;-26
2023/03/06 07:22:29;;;;;;;56.03;38.23;;;10.20;85.80;;;;;;4590023;19;20917;-24
2023/03/06 07:24:01;;;;;;;54.42;36.08;;;10.20;85.60;;;;;;4590658;19;20455;-26
2023/03/06 07:25:33;;;;;;;57.10;38.30;;;10.20;86.00;;;;;;4591342;19;20011;-25
2023/03/06 07:27:05;;;;;;;56.20;38.90;;;10.30;86.30;;;;;;4590731;19;20018;-25
2023/03/06 07:28:38;;;;;;;58.67;39.63;;;10.30;86.40;;;;;;4590083;19;20512;-25
2023/03/06 07:30:12;;;;;;;60.50;40.13;;;10.30;86.20;;;;;;4590544;19;20433;-24
2023/03/06 07:31:45;;;;;;;63.20;41.63;;;10.40;86.30;;;;;;4590597;19;20893;-25
2023/03/06 07:33:16;;;;;;;63.35;42.17;;;10.50;86.30;;;;;;4588829;19;20505;-24
2023/03/06 07:34:48;;;;;;;65.20;46.33;;;10.40;86.40;;;;;;4590448;19;20010;-25
2023/03/06 07:36:22;;;;;;;68.43;46.67;;;10.40;86.70;;;;;;4589815;19;20010;-25
2023/03/06 07:37:54;;;;;;;65.47;47.55;;;10.40;86.90;;;;;;4590704;19;20441;-25
2023/03/06 07:39:26;;;;;;;62.38;45.75;;;10.40;87.20;;;;;;4590858;19;20033;-26
2023/03/06 07:40:58;;;;;;;66.23;47.13;;;10.40;87.50;;;;;;4590285;19;20025;-25
2023/03/06 07:42:29;;;;;;;66.38;45.50;;;10.40;87.50;;;;;;4589230;19;20528;-24
2023/03/06 07:44:00;;;;;;;60.80;43.20;;;10.40;87.50;;;;;;4590598;19;20100;-25
2023/03/06 07:45:33;;;;;;;60.23;41.50;;;10.40;87.60;;;;;;4590178;19;20472;-24
2023/03/06 07:47:05;;;;;;;55.17;37.73;;;10.40;87.80;;;;;;4588969;19;20507;-24
2023/03/06 07:48:37;;;;;;;55.75;36.50;;;10.40;88.20;;;;;;4591110;19;20800;-25
2023/03/06 07:50:12;;;;;;;62.10;39.17;;;10.40;88.50;;;;;;4590070;19;20366;-25
2023/03/06 07:51:44;;;;;;;57.67;37.53;;;10.40;88.60;;;;;;4590252;19;20440;-24
2023/03/06 07:53:16;;;;;;;56.17;38.17;;;10.40;88.70;;;;;;4590316;19;20565;-24